createdAt,value
2022-12-25T00:00:08.156Z,5.51
2022-12-25T00:01:19.782Z,5.56
2022-12-25T00:02:21.948Z,5.60
2022-12-25T00:03:23.759Z,5.60
2022-12-25T00:04:25.381Z,5.61
2022-12-25T00:05:27.502Z,5.62
2022-12-25T00:06:29.058Z,5.63
2022-12-25T00:07:32.474Z,5.69
2022-12-25T00:08:34.784Z,5.69
2022-12-25T00:09:37.078Z,5.71
2022-12-25T00:10:44.946Z,5.74
2022-12-25T00:11:48.025Z,5.80
2022-12-25T00:12:50.431Z,5.82
2022-12-25T00:13:52.126Z,5.82
2022-12-25T00:14:53.647Z,5.84
2022-12-25T00:15:55.642Z,5.74
2022-12-25T00:16:57.476Z,5.67
2022-12-25T00:17:59.795Z,5.65
2022-12-25T00:19:01.366Z,5.62
2022-12-25T00:20:03.207Z,5.63
2022-12-25T00:21:07.085Z,5.63
2022-12-25T00:22:09.805Z,5.66
2022-12-25T00:23:11.396Z,5.69
2022-12-25T00:24:13.668Z,5.72
2022-12-25T00:25:15.506Z,5.72
2022-12-25T00:26:18.390Z,5.73
2022-12-25T00:27:19.929Z,5.71
2022-12-25T00:28:25.797Z,5.75
2022-12-25T00:29:28.553Z,5.75
2022-12-25T00:30:31.195Z,5.77
2022-12-25T00:31:32.807Z,5.72
2022-12-25T00:32:38.820Z,5.69
2022-12-25T00:33:42.387Z,5.70
2022-12-25T00:34:44.285Z,5.72
2022-12-25T00:35:58.518Z,5.74
2022-12-25T00:37:00.776Z,5.77
2022-12-25T00:38:03.250Z,5.71
2022-12-25T00:39:05.344Z,5.68
2022-12-25T00:40:07.740Z,5.60
2022-12-25T00:41:15.148Z,5.56
2022-12-25T00:42:18.039Z,5.54
2022-12-25T00:43:20.956Z,5.55
2022-12-25T00:44:23.034Z,5.57
2022-12-25T00:45:24.842Z,5.60
2022-12-25T00:46:26.818Z,5.64
2022-12-25T00:47:29.835Z,5.64
2022-12-25T00:48:33.664Z,5.62
2022-12-25T00:49:36.513Z,5.63
2022-12-25T00:50:39.430Z,5.62
2022-12-25T00:51:41.776Z,5.63
2022-12-25T00:52:43.501Z,5.67
2022-12-25T00:53:46.168Z,5.70
2022-12-25T00:54:48.814Z,5.74
2022-12-25T00:55:58.718Z,5.79
2022-12-25T00:57:00.610Z,5.83
2022-12-25T00:58:02.225Z,5.87
2022-12-25T00:59:04.079Z,5.88
2022-12-25T01:00:06.915Z,5.90
2022-12-25T01:01:10.832Z,5.92
2022-12-25T01:02:12.831Z,5.89
2022-12-25T01:03:14.933Z,5.87
2022-12-25T01:04:16.790Z,5.87
2022-12-25T01:05:18.602Z,5.87
2022-12-25T01:06:20.902Z,5.87
2022-12-25T01:07:24.503Z,5.85
2022-12-25T01:08:27.404Z,5.67
2022-12-25T01:09:29.509Z,5.61
2022-12-25T01:10:32.236Z,5.61
2022-12-25T01:11:34.181Z,5.59
2022-12-25T01:12:39.960Z,5.60
2022-12-25T01:13:41.800Z,5.60
2022-12-25T01:14:43.588Z,5.61
2022-12-25T01:15:45.131Z,5.63
2022-12-25T01:16:46.890Z,5.62
2022-12-25T01:17:49.169Z,5.62
2022-12-25T01:18:51.338Z,5.64
2022-12-25T01:19:53.271Z,5.65
2022-12-25T01:20:54.889Z,5.64
2022-12-25T01:21:56.499Z,5.63
2022-12-25T01:22:58.644Z,5.63
2022-12-25T01:24:00.839Z,5.61
2022-12-25T01:25:02.725Z,5.59
2022-12-25T01:26:09.881Z,5.59
2022-12-25T01:27:12.110Z,5.59
2022-12-25T01:28:14.521Z,5.59
2022-12-25T01:29:16.224Z,5.54
2022-12-25T01:30:17.892Z,5.44
2022-12-25T01:31:21.667Z,5.38
2022-12-25T01:32:23.760Z,5.33
2022-12-25T01:33:25.710Z,5.31
2022-12-25T01:34:27.639Z,5.37
2022-12-25T01:35:29.358Z,5.44
2022-12-25T01:36:31.021Z,5.49
2022-12-25T01:37:32.639Z,5.50
2022-12-25T01:38:34.183Z,5.54
2022-12-25T01:39:35.731Z,5.56
2022-12-25T01:40:39.900Z,5.60
2022-12-25T01:41:41.836Z,5.62
2022-12-25T01:42:44.557Z,5.62
2022-12-25T01:44:24.919Z,5.66
2022-12-25T01:45:40.396Z,5.68
2022-12-25T01:46:43.656Z,5.69
2022-12-25T01:47:45.821Z,5.69
2022-12-25T01:48:47.753Z,5.67
2022-12-25T01:49:51.488Z,5.67
2022-12-25T01:51:00.517Z,5.67
2022-12-25T01:52:12.515Z,5.63
2022-12-25T01:53:14.548Z,5.59
2022-12-25T01:54:19.920Z,5.64
2022-12-25T01:55:22.379Z,5.67
2022-12-25T01:56:27.315Z,5.69
2022-12-25T01:57:33.132Z,5.70
2022-12-25T01:58:35.704Z,5.69
2022-12-25T01:59:40.318Z,5.68
2022-12-25T02:00:42.059Z,5.66
2022-12-25T02:01:44.629Z,5.67
2022-12-25T02:02:46.923Z,5.71
2022-12-25T02:03:48.796Z,5.67
2022-12-25T02:05:01.914Z,5.70
2022-12-25T02:06:04.574Z,5.71
2022-12-25T02:07:18.813Z,5.70
2022-12-25T02:08:22.139Z,5.70
2022-12-25T02:09:24.270Z,5.71
2022-12-25T02:10:25.873Z,5.72
2022-12-25T02:11:28.560Z,5.72
2022-12-25T02:12:34.160Z,5.70
2022-12-25T02:13:36.537Z,5.71
2022-12-25T02:14:38.181Z,5.71
2022-12-25T02:16:20.003Z,5.72
2022-12-25T02:18:07.802Z,5.69
2022-12-25T02:19:38.880Z,5.71
2022-12-25T02:20:58.290Z,5.71
2022-12-25T02:22:14.506Z,5.70
2022-12-25T02:23:53.687Z,5.70
2022-12-25T02:25:24.603Z,5.70
2022-12-25T02:26:41.612Z,5.67
2022-12-25T02:28:04.603Z,5.63
2022-12-25T02:29:37.856Z,5.59
2022-12-25T02:30:46.642Z,5.59
2022-12-25T02:32:01.033Z,5.55
2022-12-25T02:33:12.988Z,5.55
2022-12-25T02:34:42.318Z,5.58
2022-12-25T02:35:51.077Z,5.57
2022-12-25T02:37:12.880Z,5.56
2022-12-25T02:38:22.365Z,5.57
2022-12-25T02:39:51.288Z,5.61
2022-12-25T02:40:59.071Z,5.61
2022-12-25T02:42:03.800Z,5.64
2022-12-25T02:43:11.889Z,5.65
2022-12-25T02:44:19.550Z,5.66
2022-12-25T02:45:53.905Z,5.63
2022-12-25T02:46:56.959Z,5.45
2022-12-25T02:47:59.038Z,5.38
2022-12-25T02:49:10.963Z,5.41
2022-12-25T02:50:14.999Z,5.42
2022-12-25T02:51:20.805Z,5.47
2022-12-25T02:52:24.993Z,5.51
2022-12-25T02:53:27.428Z,5.52
2022-12-25T02:54:38.596Z,5.56
2022-12-25T02:55:44.646Z,5.58
2022-12-25T02:56:49.720Z,5.55
2022-12-25T02:57:54.625Z,5.58
2022-12-25T02:58:56.734Z,5.58
2022-12-25T03:00:01.263Z,5.57
2022-12-25T03:01:12.104Z,5.40
2022-12-25T03:02:16.982Z,5.34
2022-12-25T03:03:21.341Z,5.33
2022-12-25T03:04:25.968Z,5.33
2022-12-25T03:05:30.516Z,5.34
2022-12-25T03:06:34.665Z,5.38
2022-12-25T03:07:40.016Z,5.41
2022-12-25T03:08:44.960Z,5.44
2022-12-25T03:09:56.701Z,5.44
2022-12-25T03:11:07.152Z,5.47
2022-12-25T03:12:18.745Z,5.49
2022-12-25T03:13:26.916Z,5.48
2022-12-25T03:14:29.163Z,5.40
2022-12-25T03:15:32.844Z,5.38
2022-12-25T03:16:34.718Z,5.38
2022-12-25T03:17:36.862Z,5.34
2022-12-25T03:18:38.668Z,5.24
2022-12-25T03:19:40.958Z,5.10
2022-12-25T03:20:43.865Z,5.00
2022-12-25T03:21:46.543Z,4.91
2022-12-25T03:22:48.805Z,4.90
2022-12-25T03:23:55.034Z,4.85
2022-12-25T03:24:56.826Z,4.78
2022-12-25T03:25:59.378Z,4.77
2022-12-25T03:27:01.101Z,4.75
2022-12-25T03:28:04.691Z,4.76
2022-12-25T03:29:06.393Z,4.77
2022-12-25T03:30:09.443Z,4.78
2022-12-25T03:31:14.457Z,4.79
2022-12-25T03:32:20.044Z,4.77
2022-12-25T03:33:45.636Z,4.78
2022-12-25T03:35:13.118Z,4.78
2022-12-25T03:36:25.364Z,4.77
2022-12-25T03:37:51.392Z,4.80
2022-12-25T03:39:23.599Z,4.81
2022-12-25T03:40:53.930Z,4.59
2022-12-25T03:42:01.213Z,4.53
2022-12-25T03:43:32.258Z,4.56
2022-12-25T03:44:51.489Z,4.63
2022-12-25T03:45:57.967Z,4.59
2022-12-25T03:47:12.297Z,4.44
2022-12-25T03:48:16.824Z,4.41
2022-12-25T03:49:29.653Z,4.48
2022-12-25T03:50:40.786Z,4.56
2022-12-25T03:51:44.714Z,4.61
2022-12-25T03:52:48.219Z,4.59
2022-12-25T03:53:59.356Z,4.57
2022-12-25T03:55:07.218Z,4.60
2022-12-25T03:56:10.041Z,4.59
2022-12-25T03:57:13.796Z,4.61
2022-12-25T03:58:24.071Z,4.63
2022-12-25T03:59:26.434Z,4.64
2022-12-25T04:00:28.179Z,4.63
2022-12-25T04:01:30.147Z,4.64
2022-12-25T04:02:32.359Z,4.60
2022-12-25T04:03:34.781Z,4.44
2022-12-25T04:04:36.358Z,4.33
2022-12-25T04:05:39.224Z,4.28
2022-12-25T04:06:41.930Z,4.22
2022-12-25T04:07:44.730Z,4.24
2022-12-25T04:08:46.237Z,4.29
2022-12-25T04:09:48.944Z,4.35
2022-12-25T04:10:50.551Z,4.40
2022-12-25T04:11:54.949Z,4.42
2022-12-25T04:13:01.015Z,4.42
2022-12-25T04:14:03.912Z,4.46
2022-12-25T04:15:05.978Z,4.41
2022-12-25T04:16:08.029Z,4.33
2022-12-25T04:17:10.105Z,4.26
2022-12-25T04:18:12.108Z,4.24
2022-12-25T04:19:14.756Z,4.14
2022-12-25T04:20:17.367Z,4.04
2022-12-25T04:21:19.031Z,4.02
2022-12-25T04:22:21.719Z,4.04
2022-12-25T04:23:23.245Z,4.05
2022-12-25T04:24:24.752Z,4.08
2022-12-25T04:25:26.818Z,4.14
2022-12-25T04:26:28.498Z,4.18
2022-12-25T04:27:30.685Z,4.20
2022-12-25T04:28:32.586Z,4.20
2022-12-25T04:29:34.274Z,4.22
2022-12-25T04:30:35.752Z,4.18
2022-12-25T04:31:37.959Z,4.20
2022-12-25T04:32:40.125Z,4.22
2022-12-25T04:33:41.998Z,4.26
2022-12-25T04:34:43.820Z,4.26
2022-12-25T04:35:48.652Z,4.21
2022-12-25T04:36:50.562Z,4.22
2022-12-25T04:37:52.870Z,4.21
2022-12-25T04:38:54.455Z,4.22
2022-12-25T04:39:57.032Z,4.24
2022-12-25T04:40:59.923Z,4.20
2022-12-25T04:42:01.688Z,4.21
2022-12-25T04:43:04.528Z,4.21
2022-12-25T04:44:07.416Z,4.19
2022-12-25T04:45:09.547Z,4.22
2022-12-25T04:46:11.131Z,4.22
2022-12-25T04:47:13.252Z,4.22
2022-12-25T04:48:15.152Z,4.20
2022-12-25T04:49:16.839Z,4.22
2022-12-25T04:50:19.622Z,4.21
2022-12-25T04:51:24.792Z,4.19
2022-12-25T04:52:27.141Z,4.03
2022-12-25T04:53:28.635Z,3.91
2022-12-25T04:54:30.214Z,3.82
2022-12-25T04:55:31.842Z,3.78
2022-12-25T04:56:33.668Z,3.74
2022-12-25T04:57:36.355Z,3.78
2022-12-25T04:58:39.456Z,3.82
2022-12-25T04:59:41.428Z,3.83
2022-12-25T05:00:43.549Z,3.79
2022-12-25T05:01:45.217Z,3.80
2022-12-25T05:02:47.132Z,3.78
2022-12-25T05:03:48.934Z,3.82
2022-12-25T05:04:50.593Z,3.80
2022-12-25T05:05:52.959Z,3.83
2022-12-25T05:06:54.807Z,3.86
2022-12-25T05:07:57.473Z,3.85
2022-12-25T05:08:59.075Z,3.87
2022-12-25T05:10:01.153Z,3.87
2022-12-25T05:11:12.780Z,3.87
2022-12-25T05:12:14.822Z,3.70
2022-12-25T05:13:17.611Z,3.61
2022-12-25T05:14:19.255Z,3.52
2022-12-25T05:15:21.252Z,3.45
2022-12-25T05:16:23.100Z,3.37
2022-12-25T05:17:24.839Z,3.32
2022-12-25T05:18:26.680Z,3.30
2022-12-25T05:19:28.648Z,3.23
2022-12-25T05:20:33.426Z,3.19
2022-12-25T05:21:40.123Z,3.23
2022-12-25T05:22:42.300Z,3.26
2022-12-25T05:23:44.830Z,3.29
2022-12-25T05:24:47.258Z,3.34
2022-12-25T05:25:49.052Z,3.38
2022-12-25T05:26:50.568Z,3.42
2022-12-25T05:27:53.965Z,3.42
2022-12-25T05:28:56.205Z,3.39
2022-12-25T05:29:57.919Z,3.41
2022-12-25T05:31:00.248Z,3.45
2022-12-25T05:32:02.757Z,3.44
2022-12-25T05:33:04.450Z,3.50
2022-12-25T05:34:07.244Z,3.53
2022-12-25T05:35:09.024Z,3.44
2022-12-25T05:36:13.058Z,3.25
2022-12-25T05:37:14.847Z,3.12
2022-12-25T05:38:16.536Z,2.99
2022-12-25T05:39:18.267Z,2.95
2022-12-25T05:40:20.208Z,2.91
2022-12-25T05:41:21.717Z,2.85
2022-12-25T05:42:23.635Z,2.78
2022-12-25T05:43:25.699Z,2.81
2022-12-25T05:44:27.738Z,2.89
2022-12-25T05:45:29.382Z,2.84
2022-12-25T05:46:31.013Z,2.83
2022-12-25T05:47:33.222Z,2.81
2022-12-25T05:48:36.573Z,2.80
2022-12-25T05:49:38.812Z,2.82
2022-12-25T05:50:41.712Z,2.78
2022-12-25T05:51:44.295Z,2.78
2022-12-25T05:52:45.826Z,2.81
2022-12-25T05:53:47.801Z,2.79
2022-12-25T05:54:49.463Z,2.79
2022-12-25T05:55:51.123Z,2.77
2022-12-25T05:56:52.681Z,2.82
2022-12-25T05:57:54.681Z,2.89
2022-12-25T05:58:56.375Z,2.92
2022-12-25T05:59:59.316Z,2.91
2022-12-25T06:01:02.240Z,2.91
2022-12-25T06:02:04.114Z,2.93
2022-12-25T06:03:05.826Z,2.98
2022-12-25T06:04:12.372Z,2.94
2022-12-25T06:05:14.885Z,2.95
2022-12-25T06:06:16.573Z,3.03
2022-12-25T06:07:18.724Z,3.11
2022-12-25T06:08:22.302Z,3.11
2022-12-25T06:09:24.910Z,3.05
2022-12-25T06:10:26.440Z,3.09
2022-12-25T06:11:28.018Z,3.08
2022-12-25T06:12:30.257Z,3.11
2022-12-25T06:13:34.131Z,3.15
2022-12-25T06:14:36.315Z,3.18
2022-12-25T06:15:41.800Z,3.19
2022-12-25T06:16:43.460Z,3.21
2022-12-25T06:17:45.258Z,3.20
2022-12-25T06:18:50.238Z,3.13
2022-12-25T06:19:52.265Z,3.22
2022-12-25T06:20:53.819Z,3.21
2022-12-25T06:21:56.364Z,3.21
2022-12-25T06:22:58.880Z,3.21
2022-12-25T06:24:01.562Z,3.18
2022-12-25T06:25:03.344Z,3.21
2022-12-25T06:26:12.674Z,3.21
2022-12-25T06:27:15.272Z,3.21
2022-12-25T06:28:16.930Z,3.15
2022-12-25T06:29:19.846Z,3.23
2022-12-25T06:30:22.689Z,3.22
2022-12-25T06:31:24.988Z,3.16
2022-12-25T06:32:26.802Z,3.11
2022-12-25T06:33:28.717Z,3.17
2022-12-25T06:34:30.285Z,3.18
2022-12-25T06:35:32.123Z,3.20
2022-12-25T06:36:34.403Z,3.23
2022-12-25T06:37:36.022Z,3.22
2022-12-25T06:38:38.656Z,3.12
2022-12-25T06:39:40.287Z,3.08
2022-12-25T06:40:41.879Z,3.10
2022-12-25T06:41:44.447Z,3.11
2022-12-25T06:42:46.126Z,3.05
2022-12-25T06:43:52.620Z,3.06
2022-12-25T06:44:54.236Z,3.12
2022-12-25T06:45:56.935Z,3.17
2022-12-25T06:46:58.802Z,3.22
2022-12-25T06:48:00.302Z,3.27
2022-12-25T06:49:02.894Z,3.24
2022-12-25T06:50:06.543Z,3.17
2022-12-25T06:51:08.601Z,3.08
2022-12-25T06:52:11.499Z,2.98
2022-12-25T06:53:14.406Z,2.88
2022-12-25T06:54:16.505Z,2.83
2022-12-25T06:55:18.116Z,2.77
2022-12-25T06:56:23.046Z,2.76
2022-12-25T06:57:24.612Z,2.85
2022-12-25T06:58:26.425Z,2.92
2022-12-25T06:59:28.327Z,3.00
2022-12-25T07:00:30.372Z,3.02
2022-12-25T07:01:49.000Z,3.02
2022-12-25T07:02:50.899Z,3.12
2022-12-25T07:04:02.988Z,3.17
2022-12-25T07:05:05.839Z,3.22
2022-12-25T07:06:07.564Z,3.28
2022-12-25T07:07:09.810Z,3.32
2022-12-25T07:08:12.589Z,3.36
2022-12-25T07:09:14.139Z,3.39
2022-12-25T07:10:15.664Z,3.36
2022-12-25T07:11:17.215Z,3.23
2022-12-25T07:12:22.235Z,3.15
2022-12-25T07:13:25.861Z,3.12
2022-12-25T07:14:28.425Z,3.14
2022-12-25T07:15:30.336Z,3.16
2022-12-25T07:16:32.225Z,3.04
2022-12-25T07:17:34.974Z,2.99
2022-12-25T07:18:38.218Z,2.97
2022-12-25T07:19:44.706Z,3.01
2022-12-25T07:20:47.375Z,3.00
2022-12-25T07:21:48.973Z,3.04
2022-12-25T07:22:50.634Z,3.12
2022-12-25T07:23:52.698Z,3.21
2022-12-25T07:24:54.201Z,3.36
2022-12-25T07:25:57.903Z,3.48
2022-12-25T07:26:59.677Z,3.58
2022-12-25T07:28:02.502Z,3.64
2022-12-25T07:29:04.818Z,3.63
2022-12-25T07:30:07.597Z,3.69
2022-12-25T07:31:14.678Z,3.74
2022-12-25T07:32:16.769Z,3.76
2022-12-25T07:33:20.076Z,3.65
2022-12-25T07:34:22.873Z,3.54
2022-12-25T07:35:24.776Z,3.48
2022-12-25T07:36:27.177Z,3.50
2022-12-25T07:37:28.795Z,3.50
2022-12-25T07:38:30.366Z,3.47
2022-12-25T07:39:32.448Z,3.40
2022-12-25T07:40:34.030Z,3.33
2022-12-25T07:41:35.977Z,3.29
2022-12-25T07:42:49.417Z,3.25
2022-12-25T07:43:53.414Z,3.22
2022-12-25T07:44:54.989Z,3.25
2022-12-25T07:45:59.457Z,3.26
2022-12-25T07:47:01.840Z,3.22
2022-12-25T07:48:05.864Z,3.21
2022-12-25T07:49:10.047Z,3.20
2022-12-25T07:50:12.164Z,3.15
2022-12-25T07:51:15.382Z,3.19
2022-12-25T07:52:16.918Z,3.13
2022-12-25T07:53:18.485Z,3.14
2022-12-25T07:54:20.379Z,3.12
2022-12-25T07:55:22.289Z,3.14
2022-12-25T07:56:24.237Z,3.16
2022-12-25T07:57:25.809Z,3.23
2022-12-25T07:58:29.212Z,3.26
2022-12-25T07:59:31.468Z,3.26
2022-12-25T08:00:33.072Z,3.26
2022-12-25T08:01:34.880Z,3.26
2022-12-25T08:02:37.059Z,3.26
2022-12-25T08:03:40.499Z,3.29
2022-12-25T08:04:42.195Z,3.30
2022-12-25T08:05:43.731Z,3.30
2022-12-25T08:06:45.412Z,3.33
2022-12-25T08:07:49.931Z,3.42
2022-12-25T08:08:54.669Z,3.51
2022-12-25T08:09:57.372Z,3.56
2022-12-25T08:10:59.384Z,3.55
2022-12-25T08:12:01.176Z,3.58
2022-12-25T08:13:03.125Z,3.68
2022-12-25T08:14:07.426Z,3.70
2022-12-25T08:15:10.273Z,3.77
2022-12-25T08:16:12.408Z,3.79
2022-12-25T08:17:14.436Z,3.81
2022-12-25T08:18:16.212Z,3.86
2022-12-25T08:19:18.247Z,3.92
2022-12-25T08:20:20.181Z,3.97
2022-12-25T08:21:22.568Z,3.99
2022-12-25T08:22:24.476Z,4.02
2022-12-25T08:23:25.992Z,4.02
2022-12-25T08:24:27.875Z,4.07
2022-12-25T08:25:29.575Z,4.06
2022-12-25T08:26:31.876Z,4.02
2022-12-25T08:27:34.874Z,4.05
2022-12-25T08:28:37.036Z,4.04
2022-12-25T08:29:38.962Z,4.05
2022-12-25T08:30:41.875Z,4.08
2022-12-25T08:31:46.455Z,4.10
2022-12-25T08:32:49.247Z,4.12
2022-12-25T08:33:53.778Z,4.10
2022-12-25T08:34:55.302Z,4.06
2022-12-25T08:36:02.818Z,4.01
2022-12-25T08:37:05.075Z,4.03
2022-12-25T08:38:06.910Z,4.03
2022-12-25T08:39:09.461Z,4.03
2022-12-25T08:40:12.351Z,3.99
2022-12-25T08:41:15.085Z,4.00
2022-12-25T08:42:16.818Z,4.07
2022-12-25T08:43:19.655Z,4.16
2022-12-25T08:44:21.429Z,4.17
2022-12-25T08:45:23.728Z,4.15
2022-12-25T08:46:25.540Z,4.21
2022-12-25T08:47:27.844Z,4.27
2022-12-25T08:48:30.063Z,4.28
2022-12-25T08:49:31.966Z,4.27
2022-12-25T08:50:33.943Z,4.28
2022-12-25T08:51:36.034Z,4.29
2022-12-25T08:52:38.694Z,4.35
2022-12-25T08:53:45.093Z,4.44
2022-12-25T08:54:47.023Z,4.52
2022-12-25T08:55:49.203Z,4.56
2022-12-25T08:56:54.089Z,4.66
2022-12-25T08:57:58.253Z,4.75
2022-12-25T08:58:59.847Z,4.82
2022-12-25T09:00:01.949Z,4.89
2022-12-25T09:01:04.996Z,4.95
2022-12-25T09:02:07.044Z,5.04
2022-12-25T09:03:09.409Z,5.07
2022-12-25T09:04:12.162Z,5.15
2022-12-25T09:05:14.981Z,5.25
2022-12-25T09:06:17.380Z,5.41
2022-12-25T09:07:18.944Z,5.55
2022-12-25T09:08:22.044Z,5.71
2022-12-25T09:09:27.803Z,5.91
2022-12-25T09:10:29.926Z,6.10
2022-12-25T09:11:31.583Z,6.20
2022-12-25T09:12:33.592Z,6.38
2022-12-25T09:13:35.485Z,6.51
2022-12-25T09:14:37.185Z,6.67
2022-12-25T09:15:40.507Z,6.96
2022-12-25T09:16:42.417Z,7.05
2022-12-25T09:17:44.615Z,7.31
2022-12-25T09:18:46.693Z,7.64
2022-12-25T09:19:48.311Z,7.93
2022-12-25T09:21:04.854Z,8.02
2022-12-25T09:22:06.480Z,8.23
2022-12-25T09:23:13.498Z,8.46
2022-12-25T09:24:16.340Z,8.60
2022-12-25T09:25:18.028Z,8.82
2022-12-25T09:26:20.531Z,8.97
2022-12-25T09:27:22.135Z,9.13
2022-12-25T09:28:24.746Z,9.29
2022-12-25T09:29:26.277Z,9.50
2022-12-25T09:30:29.077Z,9.41
2022-12-25T09:31:30.963Z,9.61
2022-12-25T09:32:32.998Z,9.84
2022-12-25T09:33:35.507Z,10.00
2022-12-25T09:34:37.213Z,10.24
2022-12-25T09:35:39.484Z,10.43
2022-12-25T09:36:41.346Z,10.68
2022-12-25T09:37:43.209Z,11.06
2022-12-25T09:38:44.716Z,11.42
2022-12-25T09:39:46.777Z,11.64
2022-12-25T09:40:49.545Z,11.90
2022-12-25T09:41:59.054Z,12.06
2022-12-25T09:43:03.568Z,12.14
2022-12-25T09:44:15.202Z,12.24
2022-12-25T09:45:38.942Z,12.39
2022-12-25T09:46:50.778Z,12.20
2022-12-25T09:47:56.422Z,11.98
2022-12-25T09:49:20.315Z,11.79
2022-12-25T09:50:49.242Z,11.88
2022-12-25T09:51:59.686Z,12.00
2022-12-25T09:53:07.514Z,11.95
2022-12-25T09:54:30.261Z,11.81
2022-12-25T09:55:36.437Z,11.60
2022-12-25T09:56:38.947Z,11.13
2022-12-25T09:57:41.689Z,10.76
2022-12-25T09:58:44.940Z,10.68
2022-12-25T09:59:46.738Z,10.70
2022-12-25T10:00:57.441Z,10.45
2022-12-25T10:02:05.134Z,10.39
2022-12-25T10:03:23.897Z,10.48
2022-12-25T10:04:40.830Z,10.56
2022-12-25T10:06:08.483Z,10.40
2022-12-25T10:07:27.717Z,10.32
2022-12-25T10:09:10.496Z,10.17
2022-12-25T10:10:23.680Z,10.09
2022-12-25T10:11:49.331Z,10.01
2022-12-25T10:13:19.337Z,9.85
2022-12-25T10:14:40.564Z,9.58
2022-12-25T10:16:24.648Z,9.41
2022-12-25T10:17:43.994Z,9.30
2022-12-25T10:19:00.754Z,9.20
2022-12-25T10:20:17.663Z,9.04
2022-12-25T10:21:20.581Z,8.97
2022-12-25T10:22:40.568Z,8.89
2022-12-25T10:23:50.576Z,8.83
2022-12-25T10:24:56.693Z,8.77
2022-12-25T10:25:59.384Z,8.68
2022-12-25T10:27:05.219Z,8.65
2022-12-25T10:28:14.272Z,8.67
2022-12-25T10:29:18.226Z,8.69
2022-12-25T10:30:23.192Z,8.51
2022-12-25T10:31:28.832Z,8.41
2022-12-25T10:32:30.574Z,8.34
2022-12-25T10:33:32.168Z,8.31
2022-12-25T10:34:34.956Z,8.30
2022-12-25T10:35:38.540Z,8.27
2022-12-25T10:36:41.857Z,8.32
2022-12-25T10:37:46.357Z,8.37
2022-12-25T10:38:48.873Z,8.40
2022-12-25T10:39:50.412Z,8.44
2022-12-25T10:40:57.887Z,8.39
2022-12-25T10:42:09.004Z,8.40
2022-12-25T10:43:25.551Z,8.42
2022-12-25T10:44:27.910Z,8.40
2022-12-25T10:45:29.683Z,8.41
2022-12-25T10:46:31.533Z,8.41
2022-12-25T10:47:36.148Z,8.43
2022-12-25T10:48:42.375Z,8.40
2022-12-25T10:49:44.232Z,8.34
2022-12-25T10:50:46.204Z,8.33
2022-12-25T10:51:48.516Z,8.37
2022-12-25T10:53:03.927Z,8.43
2022-12-25T10:54:22.415Z,8.48
2022-12-25T10:55:28.853Z,8.52
2022-12-25T10:56:31.481Z,8.57
2022-12-25T10:57:45.497Z,8.58
2022-12-25T10:58:47.200Z,8.63
2022-12-25T10:59:51.718Z,8.64
2022-12-25T11:00:57.566Z,8.64
2022-12-25T11:02:15.362Z,8.54
2022-12-25T11:03:23.497Z,8.57
2022-12-25T11:04:27.872Z,8.63
2022-12-25T11:05:34.247Z,8.67
2022-12-25T11:06:35.987Z,8.71
2022-12-25T11:07:44.915Z,8.73
2022-12-25T11:08:54.396Z,8.69
2022-12-25T11:10:05.112Z,8.72
2022-12-25T11:11:19.891Z,8.73
2022-12-25T11:12:32.717Z,8.75
2022-12-25T11:13:39.921Z,8.81
2022-12-25T11:14:55.717Z,8.85
2022-12-25T11:16:12.883Z,8.86
2022-12-25T11:17:19.119Z,8.89
2022-12-25T11:18:30.224Z,8.91
2022-12-25T11:19:32.985Z,8.90
2022-12-25T11:20:38.408Z,8.93
2022-12-25T11:21:52.003Z,8.95
2022-12-25T11:22:54.713Z,8.96
2022-12-25T11:24:02.820Z,9.00
2022-12-25T11:25:22.088Z,9.08
2022-12-25T11:26:24.345Z,9.16
2022-12-25T11:27:30.665Z,9.22
2022-12-25T11:28:35.299Z,9.26
2022-12-25T11:29:50.659Z,9.28
2022-12-25T11:31:00.578Z,9.40
2022-12-25T11:32:05.301Z,9.48
2022-12-25T11:33:12.171Z,9.58
2022-12-25T11:34:28.272Z,9.70
2022-12-25T11:35:32.784Z,9.79
2022-12-25T11:36:49.928Z,9.91
2022-12-25T11:37:53.085Z,10.02
2022-12-25T11:38:55.311Z,10.11
2022-12-25T11:39:57.496Z,10.20
2022-12-25T11:41:03.483Z,10.17
2022-12-25T11:42:20.694Z,10.07
2022-12-25T11:43:28.872Z,10.04
2022-12-25T11:44:47.100Z,9.95
2022-12-25T11:45:57.217Z,9.87
2022-12-25T11:47:07.729Z,9.82
2022-12-25T11:48:24.150Z,9.82
2022-12-25T11:49:25.927Z,9.80
2022-12-25T11:50:35.678Z,9.74
2022-12-25T11:51:40.682Z,9.77
2022-12-25T11:52:46.922Z,9.79
2022-12-25T11:53:52.990Z,9.79
2022-12-25T11:55:17.340Z,9.74
2022-12-25T11:56:23.700Z,9.76
2022-12-25T11:57:29.856Z,9.76
2022-12-25T11:58:44.240Z,9.71
2022-12-25T12:00:16.283Z,9.77
2022-12-25T12:01:45.823Z,9.77
2022-12-25T12:02:57.586Z,9.74
2022-12-25T12:04:03.265Z,9.78
2022-12-25T12:05:16.313Z,9.71
2022-12-25T12:06:27.026Z,9.77
2022-12-25T12:07:32.177Z,9.77
2022-12-25T12:08:35.571Z,9.76
2022-12-25T12:09:55.309Z,9.76
2022-12-25T12:11:33.717Z,9.73
2022-12-25T12:12:44.915Z,9.70
2022-12-25T12:13:59.374Z,9.72
2022-12-25T12:15:15.359Z,9.73
2022-12-25T12:16:17.711Z,9.74
2022-12-25T12:17:19.966Z,9.76
2022-12-25T12:18:23.077Z,9.71
2022-12-25T12:19:30.251Z,9.66
2022-12-25T12:20:34.829Z,9.65
2022-12-25T12:21:37.696Z,9.64
2022-12-25T12:22:40.015Z,9.63
2022-12-25T12:23:47.739Z,9.62
2022-12-25T12:25:07.848Z,9.60
2022-12-25T12:26:22.259Z,9.57
2022-12-25T12:27:31.766Z,9.58
2022-12-25T12:28:45.128Z,9.54
2022-12-25T12:29:52.440Z,9.44
2022-12-25T12:31:06.356Z,9.39
2022-12-25T12:32:35.382Z,9.35
2022-12-25T12:33:42.678Z,9.35
2022-12-25T12:34:48.578Z,9.34
2022-12-25T12:35:50.752Z,9.36
2022-12-25T12:37:00.702Z,9.32
2022-12-25T12:38:15.385Z,9.36
2022-12-25T12:39:32.041Z,9.31
2022-12-25T12:40:44.201Z,9.25
2022-12-25T12:41:48.636Z,9.20
2022-12-25T12:42:50.571Z,9.22
2022-12-25T12:43:59.588Z,9.25
2022-12-25T12:45:14.450Z,9.23
2022-12-25T12:46:30.655Z,9.23
2022-12-25T12:47:43.471Z,9.20
2022-12-25T12:48:49.051Z,9.20
2022-12-25T12:49:57.775Z,9.23
2022-12-25T12:51:04.843Z,9.20
2022-12-25T12:52:23.627Z,9.17
2022-12-25T12:53:25.343Z,9.19
2022-12-25T12:54:27.081Z,9.22
2022-12-25T12:55:31.005Z,9.21
2022-12-25T12:56:32.729Z,9.18
2022-12-25T12:57:36.970Z,9.09
2022-12-25T12:58:42.709Z,9.06
2022-12-25T12:59:44.421Z,9.03
2022-12-25T13:01:08.870Z,9.03
2022-12-25T13:02:27.305Z,8.99
2022-12-25T13:04:04.830Z,8.93
2022-12-25T13:05:34.739Z,8.91
2022-12-25T13:06:54.601Z,8.85
2022-12-25T13:08:05.420Z,8.82
2022-12-25T13:09:36.714Z,8.79
2022-12-25T13:10:44.290Z,8.73
2022-12-25T13:11:47.057Z,8.69
2022-12-25T13:12:57.443Z,8.68
2022-12-25T13:14:03.144Z,8.66
2022-12-25T13:15:12.857Z,8.64
2022-12-25T13:16:19.797Z,8.66
2022-12-25T13:17:24.968Z,8.65
2022-12-25T13:18:27.811Z,8.66
2022-12-25T13:19:29.992Z,8.63
2022-12-25T13:20:40.253Z,8.56
2022-12-25T13:21:53.030Z,8.59
2022-12-25T13:22:55.443Z,8.60
2022-12-25T13:24:06.323Z,8.60
2022-12-25T13:25:20.387Z,8.58
2022-12-25T13:26:22.733Z,8.49
2022-12-25T13:27:27.286Z,8.49
2022-12-25T13:28:31.817Z,8.48
2022-12-25T13:29:35.453Z,8.42
2022-12-25T13:30:37.231Z,8.39
2022-12-25T13:31:40.551Z,8.43
2022-12-25T13:32:43.386Z,8.44
2022-12-25T13:33:55.275Z,8.44
2022-12-25T13:34:57.312Z,8.37
2022-12-25T13:35:59.265Z,8.29
2022-12-25T13:37:08.087Z,8.33
2022-12-25T13:38:16.988Z,8.33
2022-12-25T13:39:19.992Z,8.35
2022-12-25T13:40:28.248Z,8.34
2022-12-25T13:41:56.881Z,8.24
2022-12-25T13:43:00.866Z,8.20
2022-12-25T13:44:02.856Z,8.18
2022-12-25T13:45:21.130Z,8.18
2022-12-25T13:46:27.382Z,8.14
2022-12-25T13:47:41.740Z,8.07
2022-12-25T13:48:44.589Z,8.07
2022-12-25T13:49:47.515Z,8.05
2022-12-25T13:51:01.999Z,7.99
2022-12-25T13:52:13.131Z,7.96
2022-12-25T13:53:17.585Z,7.95
2022-12-25T13:54:20.234Z,7.96
2022-12-25T13:55:28.372Z,7.95
2022-12-25T13:56:30.845Z,7.91
2022-12-25T13:57:39.101Z,7.87
2022-12-25T13:58:40.850Z,7.83
2022-12-25T13:59:44.837Z,7.83
2022-12-25T14:00:52.766Z,7.85
2022-12-25T14:01:55.491Z,7.83
2022-12-25T14:02:58.192Z,7.86
2022-12-25T14:04:00.209Z,7.86
2022-12-25T14:05:02.523Z,7.86
2022-12-25T14:06:22.371Z,7.86
2022-12-25T14:07:24.851Z,7.77
2022-12-25T14:08:30.283Z,7.74
2022-12-25T14:09:33.680Z,7.69
2022-12-25T14:10:38.616Z,7.68
2022-12-25T14:11:43.313Z,7.71
2022-12-25T14:12:45.044Z,7.76
2022-12-25T14:13:49.646Z,7.73
2022-12-25T14:14:53.222Z,7.78
2022-12-25T14:15:56.632Z,7.72
2022-12-25T14:16:59.469Z,7.77
2022-12-25T14:18:01.778Z,7.79
2022-12-25T14:19:04.174Z,7.78
2022-12-25T14:20:08.829Z,7.72
2022-12-25T14:21:17.082Z,7.64
2022-12-25T14:22:23.146Z,7.64
2022-12-25T14:23:25.106Z,7.63
2022-12-25T14:24:29.043Z,7.61
2022-12-25T14:25:35.550Z,7.59
2022-12-25T14:26:38.086Z,7.63
2022-12-25T14:27:39.661Z,7.65
2022-12-25T14:28:42.185Z,7.66
2022-12-25T14:29:46.731Z,7.65
2022-12-25T14:30:48.835Z,7.67
2022-12-25T14:31:50.559Z,7.69
2022-12-25T14:32:55.020Z,7.68
2022-12-25T14:33:59.864Z,7.64
2022-12-25T14:35:02.962Z,7.65